createdAt,value
2022-08-26T00:01:56.668Z,6.20
2022-08-26T00:04:25.743Z,6.43
2022-08-26T00:06:56.028Z,6.63
2022-08-26T00:09:24.932Z,5.90
2022-08-26T00:11:54.563Z,6.05
2022-08-26T00:14:28.304Z,5.65
2022-08-26T00:16:57.193Z,5.72
2022-08-26T00:19:24.864Z,6.13
2022-08-26T00:21:51.953Z,6.75
2022-08-26T00:24:20.908Z,6.28
2022-08-26T00:26:49.876Z,6.50
2022-08-26T00:29:17.934Z,5.40
2022-08-26T00:31:45.747Z,6.43
2022-08-26T00:34:14.225Z,6.10
2022-08-26T00:36:43.556Z,6.43
2022-08-26T00:39:11.321Z,5.93
2022-08-26T00:41:40.929Z,6.63
2022-08-26T00:44:11.172Z,6.03
2022-08-26T00:46:46.924Z,5.90
2022-08-26T00:49:23.008Z,5.65
2022-08-26T00:51:58.682Z,6.72
2022-08-26T00:54:31.057Z,6.05
2022-08-26T00:57:16.386Z,7.05
2022-08-26T00:59:52.993Z,6.45
2022-08-26T01:02:21.516Z,6.35
2022-08-26T01:04:59.898Z,6.70
2022-08-26T01:07:31.455Z,6.68
2022-08-26T01:10:03.243Z,7.05
2022-08-26T01:12:40.212Z,6.15
2022-08-26T01:15:21.694Z,6.72
2022-08-26T01:17:49.803Z,7.15
2022-08-26T01:20:48.044Z,6.90
2022-08-26T01:23:16.401Z,7.00
2022-08-26T01:25:54.823Z,6.68
2022-08-26T01:28:33.826Z,7.30
2022-08-26T01:31:05.249Z,7.28
2022-08-26T01:34:02.012Z,6.75
2022-08-26T01:36:30.740Z,7.38
2022-08-26T01:38:58.069Z,7.75
2022-08-26T01:41:29.161Z,7.65
2022-08-26T01:43:57.994Z,7.68
2022-08-26T01:46:28.313Z,7.35
2022-08-26T01:49:01.117Z,7.65
2022-08-26T01:51:30.245Z,7.97
2022-08-26T01:53:58.446Z,8.23
2022-08-26T01:56:26.956Z,8.50
2022-08-26T01:59:05.667Z,7.93
2022-08-26T02:01:33.812Z,8.25
2022-08-26T02:04:22.050Z,8.27
2022-08-26T02:06:50.518Z,10.20
2022-08-26T02:09:19.748Z,9.90
2022-08-26T02:11:48.591Z,9.02
2022-08-26T02:14:28.825Z,9.45
2022-08-26T02:16:57.259Z,10.20
2022-08-26T02:19:33.118Z,10.07
2022-08-26T02:22:05.772Z,9.45
2022-08-26T02:24:57.157Z,10.52
2022-08-26T02:27:32.811Z,10.27
2022-08-26T02:30:26.453Z,10.68
2022-08-26T02:32:58.323Z,9.73
2022-08-26T02:35:25.725Z,9.10
2022-08-26T02:37:53.194Z,10.23
2022-08-26T02:40:26.546Z,10.60
2022-08-26T02:42:57.000Z,11.23
2022-08-26T02:45:26.500Z,10.13
2022-08-26T02:47:53.974Z,10.63
2022-08-26T02:50:21.361Z,10.48
2022-08-26T02:52:48.699Z,10.77
2022-08-26T02:55:16.111Z,10.13
2022-08-26T02:57:43.736Z,10.93
2022-08-26T03:00:14.718Z,10.80
2022-08-26T03:02:42.331Z,10.48
2022-08-26T03:05:11.437Z,11.13
2022-08-26T03:07:39.316Z,11.68
2022-08-26T03:10:08.725Z,12.82
2022-08-26T03:12:37.034Z,11.02
2022-08-26T03:15:17.411Z,12.23
2022-08-26T03:17:49.207Z,12.48
2022-08-26T03:20:18.546Z,12.70
2022-08-26T03:22:45.879Z,11.98
2022-08-26T03:25:16.672Z,12.85
2022-08-26T03:27:44.396Z,12.77
2022-08-26T03:30:33.490Z,12.25
2022-08-26T03:33:01.996Z,11.50
2022-08-26T03:35:30.154Z,12.18
2022-08-26T03:37:57.372Z,12.50
2022-08-26T03:40:24.828Z,13.38
2022-08-26T03:42:56.180Z,13.15
2022-08-26T03:45:23.392Z,13.18
2022-08-26T03:47:51.615Z,12.88
2022-08-26T03:50:24.321Z,13.38
2022-08-26T03:52:54.243Z,13.52
2022-08-26T03:55:25.339Z,14.18
2022-08-26T03:57:54.805Z,14.88
2022-08-26T04:00:22.774Z,14.02
2022-08-26T04:02:53.445Z,14.98
2022-08-26T04:05:22.979Z,15.13
2022-08-26T04:07:51.313Z,15.45
2022-08-26T04:10:29.170Z,15.57
2022-08-26T04:13:00.177Z,14.98
2022-08-26T04:15:28.073Z,15.68
2022-08-26T04:17:55.849Z,15.93
2022-08-26T04:20:23.209Z,15.32
2022-08-26T04:22:51.111Z,16.63
2022-08-26T04:25:18.680Z,16.38
2022-08-26T04:27:48.432Z,17.63
2022-08-26T04:30:16.705Z,16.15
2022-08-26T04:32:44.114Z,16.38
2022-08-26T04:35:11.400Z,15.98
2022-08-26T04:37:38.565Z,16.05
2022-08-26T04:40:06.774Z,15.65
2022-08-26T04:42:34.326Z,15.57
2022-08-26T04:45:05.817Z,16.25
2022-08-26T04:47:37.565Z,15.35
2022-08-26T04:50:06.970Z,14.48
2022-08-26T04:52:36.593Z,16.23
2022-08-26T04:55:06.526Z,15.30
2022-08-26T04:57:36.086Z,15.45
2022-08-26T05:00:07.854Z,15.07
2022-08-26T05:02:36.190Z,15.38
2022-08-26T05:05:06.979Z,15.80
2022-08-26T05:07:35.732Z,16.13
2022-08-26T05:10:04.754Z,16.15
2022-08-26T05:12:36.030Z,16.00
2022-08-26T05:15:05.971Z,15.98
2022-08-26T05:17:33.410Z,17.65
2022-08-26T05:20:00.486Z,16.13
2022-08-26T05:22:27.492Z,15.27
2022-08-26T05:24:54.482Z,15.45
2022-08-26T05:27:21.564Z,15.30
2022-08-26T05:29:48.578Z,18.00
2022-08-26T05:32:21.616Z,18.25
2022-08-26T05:34:48.593Z,17.67
2022-08-26T05:37:19.615Z,15.20
2022-08-26T05:39:51.399Z,16.25
2022-08-26T05:42:19.884Z,14.52
2022-08-26T05:44:56.108Z,16.75
2022-08-26T05:47:25.364Z,16.60
2022-08-26T05:49:53.051Z,15.77
2022-08-26T05:52:20.434Z,16.55
2022-08-26T05:54:47.643Z,17.77
2022-08-26T05:57:15.293Z,14.70
2022-08-26T05:59:42.600Z,17.38
2022-08-26T06:02:10.126Z,16.20
2022-08-26T06:04:37.084Z,15.23
2022-08-26T06:07:04.138Z,15.75
2022-08-26T06:09:32.720Z,17.17
2022-08-26T06:12:01.767Z,16.27
2022-08-26T06:14:30.487Z,17.52
2022-08-26T06:17:00.782Z,16.08
2022-08-26T06:19:33.142Z,17.90
2022-08-26T06:22:23.506Z,17.77
2022-08-26T06:25:09.280Z,15.95
2022-08-26T06:27:37.002Z,15.88
2022-08-26T06:30:04.653Z,15.52
2022-08-26T06:32:31.880Z,16.48
2022-08-26T06:34:59.138Z,16.92
2022-08-26T06:37:26.144Z,14.98
2022-08-26T06:39:53.181Z,16.08
2022-08-26T06:42:20.385Z,16.65
2022-08-26T06:44:47.462Z,17.92
2022-08-26T06:47:15.123Z,14.98
2022-08-26T06:49:42.148Z,13.95
2022-08-26T06:52:11.318Z,15.68
2022-08-26T06:54:43.050Z,14.32
2022-08-26T06:57:12.436Z,14.30
2022-08-26T06:59:41.585Z,15.80
2022-08-26T07:02:08.632Z,16.83
2022-08-26T07:04:41.044Z,14.80
2022-08-26T07:07:09.748Z,15.48
2022-08-26T07:09:37.409Z,14.23
2022-08-26T07:12:06.841Z,14.90
2022-08-26T07:14:34.993Z,14.82
2022-08-26T07:17:02.228Z,14.02
2022-08-26T07:19:30.944Z,15.40
2022-08-26T07:22:02.036Z,13.57
2022-08-26T07:24:29.665Z,15.70
2022-08-26T07:27:06.515Z,15.68
2022-08-26T07:29:35.247Z,16.13
2022-08-26T07:32:03.220Z,16.95
2022-08-26T07:34:32.179Z,16.50
2022-08-26T07:37:01.080Z,16.38
2022-08-26T07:39:28.786Z,16.88
2022-08-26T07:42:01.582Z,18.02
2022-08-26T07:44:35.631Z,14.85
2022-08-26T07:47:02.679Z,15.98
2022-08-26T07:49:29.954Z,16.27
2022-08-26T07:51:57.466Z,15.20
2022-08-26T07:54:26.814Z,15.65
2022-08-26T07:56:55.905Z,15.90
2022-08-26T07:59:24.038Z,16.45
2022-08-26T08:01:51.595Z,16.13
2022-08-26T08:04:25.548Z,14.38
2022-08-26T08:06:54.410Z,15.68
2022-08-26T08:09:22.372Z,15.35
2022-08-26T08:11:50.108Z,15.07
2022-08-26T08:14:20.466Z,13.75
2022-08-26T08:16:53.312Z,13.98
2022-08-26T08:19:23.208Z,13.90
2022-08-26T08:21:51.555Z,14.13
2022-08-26T08:24:19.350Z,13.07
2022-08-26T08:26:46.421Z,13.43
2022-08-26T08:29:14.214Z,11.32
2022-08-26T08:31:58.455Z,13.05
2022-08-26T08:34:28.652Z,13.52
2022-08-26T08:36:57.223Z,13.65
2022-08-26T08:39:26.382Z,12.68
2022-08-26T08:42:30.981Z,12.65
2022-08-26T08:45:04.956Z,12.25
2022-08-26T08:47:38.988Z,11.93
2022-08-26T08:50:22.991Z,12.18
2022-08-26T08:53:16.475Z,11.70
2022-08-26T08:56:26.548Z,12.60
2022-08-26T08:59:11.327Z,11.63
2022-08-26T09:01:58.972Z,11.82
2022-08-26T09:05:07.853Z,10.70
2022-08-26T09:07:44.640Z,11.32
2022-08-26T09:10:34.694Z,11.02
2022-08-26T09:13:08.031Z,10.80
2022-08-26T09:15:50.840Z,10.55
2022-08-26T09:18:51.326Z,9.23
2022-08-26T09:21:21.109Z,10.65
2022-08-26T09:23:52.275Z,10.80
2022-08-26T09:26:36.372Z,10.43
2022-08-26T09:29:24.071Z,10.55
2022-08-26T09:32:12.926Z,11.13
2022-08-26T09:35:03.440Z,9.43
2022-08-26T09:37:40.900Z,10.57
2022-08-26T09:40:29.602Z,10.57
2022-08-26T09:43:15.892Z,10.27
2022-08-26T09:45:50.847Z,9.60
2022-08-26T09:48:36.343Z,9.70
2022-08-26T09:51:26.511Z,10.32
2022-08-26T09:54:02.983Z,10.27
2022-08-26T09:56:39.676Z,10.30
2022-08-26T09:59:11.307Z,10.93
2022-08-26T10:01:44.747Z,10.02
2022-08-26T10:04:14.580Z,9.35
2022-08-26T10:06:56.219Z,9.25
2022-08-26T10:09:26.471Z,9.57
2022-08-26T10:12:11.957Z,9.52
2022-08-26T10:14:47.961Z,8.88
2022-08-26T10:17:30.924Z,10.43
2022-08-26T10:20:24.071Z,10.02
2022-08-26T10:23:12.921Z,8.88
2022-08-26T10:26:27.368Z,9.60
2022-08-26T10:29:12.279Z,9.20
2022-08-26T10:32:02.646Z,9.43
2022-08-26T10:34:33.360Z,10.40
2022-08-26T10:37:15.747Z,8.70
2022-08-26T10:40:08.079Z,10.50
2022-08-26T10:42:52.195Z,8.55
2022-08-26T10:45:25.391Z,9.43
2022-08-26T10:48:11.675Z,11.05
2022-08-26T10:50:43.182Z,10.00
2022-08-26T10:53:45.112Z,10.77
2022-08-26T10:56:37.133Z,9.75
2022-08-26T10:59:39.986Z,9.40
2022-08-26T11:02:40.154Z,9.13
2022-08-26T11:05:23.617Z,11.93
2022-08-26T11:08:20.495Z,10.65
2022-08-26T11:10:55.420Z,10.48
2022-08-26T11:14:28.992Z,10.88
2022-08-26T11:16:58.929Z,11.20
2022-08-26T11:19:59.502Z,10.88
2022-08-26T11:22:36.313Z,10.30
2022-08-26T11:25:11.457Z,11.00
2022-08-26T11:27:38.927Z,10.77
2022-08-26T11:30:18.451Z,11.23
2022-08-26T11:32:59.002Z,10.18
2022-08-26T11:35:26.654Z,10.52
2022-08-26T11:38:24.129Z,10.48
2022-08-26T11:41:17.501Z,10.30
2022-08-26T11:43:49.321Z,10.07
2022-08-26T11:46:27.294Z,10.52
2022-08-26T11:49:14.738Z,12.80
2022-08-26T11:51:45.230Z,11.20
2022-08-26T11:54:30.498Z,10.50
2022-08-26T11:57:09.367Z,10.75
2022-08-26T11:59:41.881Z,11.20
2022-08-26T12:02:17.947Z,10.52
2022-08-26T12:04:50.622Z,11.27
2022-08-26T12:07:27.612Z,12.25
2022-08-26T12:10:02.484Z,10.90
2022-08-26T12:12:35.059Z,10.20
2022-08-26T12:15:18.641Z,10.15
2022-08-26T12:17:51.790Z,10.70
2022-08-26T12:20:45.952Z,9.30
2022-08-26T12:23:28.229Z,9.27
2022-08-26T12:26:31.165Z,9.77
2022-08-26T12:29:19.688Z,9.98
2022-08-26T12:31:48.469Z,10.43
2022-08-26T12:34:18.528Z,9.95
2022-08-26T12:36:55.534Z,9.88
2022-08-26T12:39:30.398Z,10.48
2022-08-26T12:42:20.671Z,11.15
2022-08-26T12:45:03.869Z,11.45
2022-08-26T12:47:42.130Z,10.43
2022-08-26T12:50:32.452Z,10.88
2022-08-26T12:53:34.884Z,11.50
2022-08-26T12:56:19.334Z,10.63
2022-08-26T12:59:22.641Z,10.18
2022-08-26T13:01:50.785Z,10.20
2022-08-26T13:04:37.899Z,10.40
2022-08-26T13:07:25.275Z,11.55
2022-08-26T13:09:58.124Z,11.15
2022-08-26T13:12:41.066Z,9.95
2022-08-26T13:15:08.608Z,9.57
2022-08-26T13:17:36.058Z,8.73
2022-08-26T13:20:04.554Z,7.53
2022-08-26T13:22:32.341Z,6.38
2022-08-26T13:24:59.539Z,5.43
2022-08-26T13:27:27.939Z,4.90
2022-08-26T13:29:57.643Z,5.25
2022-08-26T13:32:27.197Z,5.22
2022-08-26T13:34:56.695Z,4.47
2022-08-26T13:37:35.066Z,4.32
2022-08-26T13:40:07.008Z,4.25
2022-08-26T13:42:34.643Z,4.30
2022-08-26T13:45:03.444Z,4.60
2022-08-26T13:47:30.810Z,5.57
2022-08-26T13:49:58.260Z,6.38
2022-08-26T13:52:30.332Z,6.55
2022-08-26T13:55:00.585Z,6.63
2022-08-26T13:57:30.499Z,5.95
2022-08-26T13:59:59.587Z,5.85
2022-08-26T14:02:28.303Z,6.72
2022-08-26T14:04:55.980Z,5.90
2022-08-26T14:07:23.409Z,5.57
2022-08-26T14:09:50.587Z,5.97
2022-08-26T14:12:18.047Z,6.47
2022-08-26T14:14:45.137Z,6.35
2022-08-26T14:17:20.521Z,4.45
2022-08-26T14:19:50.536Z,4.85
2022-08-26T14:22:21.299Z,4.57
2022-08-26T14:24:50.272Z,5.32
2022-08-26T14:27:17.541Z,4.50
2022-08-26T14:29:44.647Z,4.72
2022-08-26T14:32:26.120Z,5.82
2022-08-26T14:34:54.163Z,4.50
2022-08-26T14:37:21.551Z,4.20
2022-08-26T14:39:48.716Z,4.72
2022-08-26T14:42:25.813Z,4.32
2022-08-26T14:45:02.530Z,5.25
2022-08-26T14:47:29.755Z,5.22
2022-08-26T14:49:57.737Z,4.75
2022-08-26T14:52:25.487Z,5.38
2022-08-26T14:54:55.107Z,5.00
2022-08-26T14:57:22.854Z,5.53
2022-08-26T14:59:50.525Z,5.25
2022-08-26T15:02:32.626Z,5.45
2022-08-26T15:05:06.491Z,5.78
2022-08-26T15:07:33.553Z,5.43
2022-08-26T15:10:00.823Z,5.20
2022-08-26T15:12:28.007Z,5.53
2022-08-26T15:14:55.121Z,5.35
2022-08-26T15:17:22.335Z,5.32
2022-08-26T15:19:49.379Z,6.68
2022-08-26T15:22:16.737Z,6.80
2022-08-26T15:24:43.901Z,5.47
2022-08-26T15:27:11.373Z,6.07
2022-08-26T15:29:39.149Z,6.03
2022-08-26T15:32:06.369Z,5.85
2022-08-26T15:34:33.468Z,6.55
2022-08-26T15:37:00.521Z,7.03
2022-08-26T15:39:28.391Z,7.53
2022-08-26T15:41:56.207Z,7.03
2022-08-26T15:44:26.016Z,7.68
2022-08-26T15:46:58.605Z,7.53
2022-08-26T15:49:27.501Z,7.38
2022-08-26T15:51:55.011Z,8.15
2022-08-26T15:54:23.679Z,7.60
2022-08-26T15:56:52.436Z,6.47
2022-08-26T15:59:22.197Z,9.65
2022-08-26T16:01:50.780Z,7.57
2022-08-26T16:04:18.685Z,8.73
2022-08-26T16:06:50.219Z,8.65
2022-08-26T16:09:19.368Z,8.60
2022-08-26T16:11:46.651Z,8.43
2022-08-26T16:14:14.094Z,9.27
2022-08-26T16:16:41.917Z,11.23
2022-08-26T16:19:09.667Z,8.23
2022-08-26T16:21:39.573Z,8.18
2022-08-26T16:24:07.832Z,9.63
2022-08-26T16:26:37.786Z,10.13
2022-08-26T16:29:09.576Z,8.85
2022-08-26T16:31:38.329Z,8.85
2022-08-26T16:34:07.893Z,8.38
2022-08-26T16:36:38.123Z,8.23
2022-08-26T16:39:08.319Z,9.38
2022-08-26T16:41:36.201Z,11.00
2022-08-26T16:44:04.834Z,12.40
2022-08-26T16:46:33.997Z,11.25
2022-08-26T16:49:04.296Z,10.38
2022-08-26T16:51:32.623Z,10.20
2022-08-26T16:54:07.616Z,10.40
2022-08-26T16:56:36.503Z,12.10
2022-08-26T16:59:11.911Z,10.30
2022-08-26T17:01:40.077Z,9.57
2022-08-26T17:04:07.403Z,10.40
2022-08-26T17:06:44.477Z,10.25
2022-08-26T17:09:12.389Z,8.90
2022-08-26T17:11:39.615Z,9.60
2022-08-26T17:14:06.925Z,10.10
2022-08-26T17:16:34.515Z,9.98
2022-08-26T17:19:02.370Z,10.35
2022-08-26T17:21:29.599Z,9.25
2022-08-26T17:23:56.746Z,10.32
2022-08-26T17:26:24.070Z,10.07
2022-08-26T17:28:51.996Z,9.73
2022-08-26T17:31:20.820Z,8.65
2022-08-26T17:33:53.769Z,9.45
2022-08-26T17:36:27.504Z,9.02
2022-08-26T17:38:57.932Z,9.20
2022-08-26T17:41:26.516Z,9.20
2022-08-26T17:43:53.941Z,9.60
2022-08-26T17:46:21.364Z,9.75
2022-08-26T17:48:48.512Z,10.15
2022-08-26T17:51:19.266Z,10.18
2022-08-26T17:53:47.987Z,10.77
2022-08-26T17:56:19.376Z,10.07
2022-08-26T17:58:51.086Z,9.68
2022-08-26T18:01:20.464Z,10.50
2022-08-26T18:03:48.942Z,9.98
2022-08-26T18:06:16.010Z,10.32
2022-08-26T18:08:43.970Z,11.75
2022-08-26T18:11:14.666Z,10.93
2022-08-26T18:13:47.404Z,10.45
2022-08-26T18:16:17.959Z,11.30
2022-08-26T18:18:47.213Z,10.73
2022-08-26T18:21:18.673Z,10.35
2022-08-26T18:23:47.599Z,10.90
2022-08-26T18:26:28.166Z,11.38
2022-08-26T18:29:07.427Z,11.05
2022-08-26T18:31:35.177Z,11.32
2022-08-26T18:34:03.694Z,11.50
2022-08-26T18:36:35.784Z,10.27
2022-08-26T18:39:05.554Z,11.75
2022-08-26T18:41:38.513Z,11.43
2022-08-26T18:44:05.572Z,11.15
2022-08-26T18:46:32.657Z,10.40
2022-08-26T18:48:59.797Z,13.73
2022-08-26T18:51:32.899Z,14.25
2022-08-26T18:54:02.725Z,12.70
2022-08-26T18:56:30.565Z,15.35
2022-08-26T18:58:59.761Z,14.20
2022-08-26T19:01:29.496Z,12.63
2022-08-26T19:03:59.510Z,12.95
2022-08-26T19:06:31.502Z,13.90
2022-08-26T19:09:00.089Z,13.57
2022-08-26T19:11:32.135Z,12.98
2022-08-26T19:14:01.831Z,12.10
2022-08-26T19:16:31.049Z,13.23
2022-08-26T19:19:01.024Z,12.23
2022-08-26T19:21:29.604Z,13.10
2022-08-26T19:24:03.379Z,12.27
2022-08-26T19:26:31.664Z,12.43
2022-08-26T19:28:59.566Z,12.77
2022-08-26T19:31:27.198Z,11.77
2022-08-26T19:33:54.377Z,12.90
2022-08-26T19:36:25.355Z,12.25
2022-08-26T19:38:53.703Z,11.75
2022-08-26T19:41:36.457Z,12.13
2022-08-26T19:44:12.853Z,11.20
2022-08-26T19:46:40.937Z,11.27
2022-08-26T19:49:08.309Z,12.30
2022-08-26T19:51:36.558Z,12.43
2022-08-26T19:54:04.441Z,13.43
2022-08-26T19:56:31.945Z,14.38
2022-08-26T19:59:14.377Z,12.63
2022-08-26T20:01:41.429Z,12.43
2022-08-26T20:04:08.523Z,12.48
2022-08-26T20:06:35.573Z,11.18
2022-08-26T20:09:02.547Z,11.65
2022-08-26T20:11:29.791Z,11.82
2022-08-26T20:13:57.138Z,10.75
2022-08-26T20:16:24.207Z,11.70
2022-08-26T20:19:09.529Z,10.98
2022-08-26T20:21:39.763Z,10.82
2022-08-26T20:24:16.361Z,10.48
2022-08-26T20:26:45.179Z,10.63
2022-08-26T20:29:15.963Z,10.90
2022-08-26T20:31:44.162Z,9.13
2022-08-26T20:34:13.312Z,9.77
2022-08-26T20:36:44.135Z,8.95
2022-08-26T20:39:12.856Z,9.55
2022-08-26T20:41:43.923Z,8.85
2022-08-26T20:44:12.167Z,9.68
2022-08-26T20:46:39.965Z,8.88
2022-08-26T20:49:07.585Z,8.95
2022-08-26T20:51:37.301Z,8.60
2022-08-26T20:54:07.038Z,8.77
2022-08-26T20:56:34.389Z,9.93
2022-08-26T20:59:02.486Z,8.82
2022-08-26T21:01:34.786Z,8.10
2022-08-26T21:04:06.920Z,8.95
2022-08-26T21:06:36.220Z,8.45
2022-08-26T21:09:08.488Z,8.15
2022-08-26T21:11:44.577Z,8.07
2022-08-26T21:14:16.004Z,8.65
2022-08-26T21:16:46.301Z,7.85
2022-08-26T21:19:18.010Z,8.88
2022-08-26T21:21:48.158Z,9.45
2022-08-26T21:24:15.799Z,8.50
2022-08-26T21:26:43.774Z,9.13
2022-08-26T21:29:11.037Z,8.77
2022-08-26T21:31:44.859Z,9.38
2022-08-26T21:34:15.892Z,8.68
2022-08-26T21:36:43.307Z,9.35
2022-08-26T21:39:11.982Z,8.63
2022-08-26T21:41:42.051Z,8.82
2022-08-26T21:44:10.552Z,8.10
2022-08-26T21:46:37.767Z,7.82
2022-08-26T21:49:09.916Z,7.90
2022-08-26T21:51:43.194Z,7.88
2022-08-26T21:54:11.728Z,9.15
2022-08-26T21:56:46.507Z,8.13
2022-08-26T21:59:18.100Z,8.52
2022-08-26T22:01:45.808Z,8.15
2022-08-26T22:04:13.112Z,8.38
2022-08-26T22:06:45.038Z,8.20
2022-08-26T22:09:14.557Z,8.00
2022-08-26T22:11:42.023Z,7.22
2022-08-26T22:14:10.526Z,8.77
2022-08-26T22:16:38.256Z,8.05
2022-08-26T22:19:06.108Z,8.07
2022-08-26T22:21:35.669Z,7.55
2022-08-26T22:24:03.974Z,7.93
2022-08-26T22:26:33.133Z,8.43
2022-08-26T22:29:02.133Z,7.88
2022-08-26T22:31:37.864Z,8.40
2022-08-26T22:34:11.324Z,8.32
2022-08-26T22:36:43.978Z,8.23
2022-08-26T22:39:24.044Z,7.90
2022-08-26T22:41:53.549Z,7.63
2022-08-26T22:44:22.475Z,7.93
2022-08-26T22:46:54.276Z,7.97
2022-08-26T22:49:21.791Z,7.95
2022-08-26T22:51:49.277Z,8.43
2022-08-26T22:54:17.380Z,8.15
2022-08-26T22:56:45.435Z,8.13
2022-08-26T22:59:13.495Z,7.85
2022-08-26T23:01:43.457Z,6.85
2022-08-26T23:04:11.124Z,7.28
2022-08-26T23:06:43.059Z,7.47
2022-08-26T23:09:11.693Z,7.53
2022-08-26T23:11:43.011Z,7.25
2022-08-26T23:14:11.127Z,7.25
2022-08-26T23:16:41.859Z,7.07
2022-08-26T23:19:13.011Z,6.80
2022-08-26T23:21:40.702Z,7.88
2022-08-26T23:24:09.223Z,6.65
2022-08-26T23:26:38.197Z,7.68
2022-08-26T23:29:09.008Z,6.80
2022-08-26T23:31:39.211Z,7.03
2022-08-26T23:34:25.273Z,7.25
2022-08-26T23:36:53.883Z,7.28
2022-08-26T23:39:21.386Z,6.78
2022-08-26T23:41:48.537Z,6.72
2022-08-26T23:44:15.660Z,6.75
2022-08-26T23:46:42.923Z,7.38
2022-08-26T23:49:10.157Z,6.53
2022-08-26T23:51:57.683Z,6.70
2022-08-26T23:54:24.874Z,6.68
2022-08-26T23:56:52.017Z,7.28
2022-08-26T23:59:19.251Z,7.35
